Time;durP1;ratioP1;P1;durP2;ratioP2;P2;SDS_P1;SDS_P2;PMS_P1;PMS_P2;Temp;Humidity;BMP_temperature;BMP_pressure;BME280_temperature;BME280_humidity;BME280_pressure;Samples;Min_cycle;Max_cycle;Signal;HPM_P1;HPM_P2
2022/02/02 00:01:21;;;;;;;4.10;2.23;;;11.30;63.60;;;;;;4965973;28;20450;-49
2022/02/02 00:03:51;;;;;;;6.80;1.70;;;11.30;64.00;;;;;;4982494;28;20449;-45
2022/02/02 00:06:27;;;;;;;2.60;1.70;;;11.30;63.90;;;;;;4981407;28;20460;-46
2022/02/02 00:09:03;;;;;;;2.67;1.83;;;11.40;63.40;;;;;;4986358;28;20453;-46
2022/02/02 00:12:06;;;;;;;1.87;1.70;;;11.50;63.30;;;;;;4992119;28;20477;-46
2022/02/02 00:16:54;;;;;;;2.47;2.10;;;11.40;63.50;;;;;;4984726;28;20460;-47
2022/02/02 00:21:52;;;;;;;3.77;2.17;;;11.70;63.00;;;;;;4990869;28;20532;-46
2022/02/02 00:24:26;;;;;;;2.77;2.23;;;11.70;62.80;;;;;;4997949;28;20445;-46
2022/02/02 00:26:55;;;;;;;6.53;2.60;;;11.40;63.10;;;;;;4982194;28;20965;-46
2022/02/02 00:29:25;;;;;;;5.80;2.50;;;11.40;63.50;;;;;;4985866;28;20477;-45
2022/02/02 00:32:00;;;;;;;6.47;2.90;;;11.40;63.30;;;;;;4992408;28;20480;-47
2022/02/02 00:34:26;;;;;;;3.90;1.90;;;11.50;63.40;;;;;;4984682;28;20456;-45
2022/02/02 00:36:57;;;;;;;2.77;1.70;;;11.40;63.10;;;;;;4986215;28;20460;-49
2022/02/02 00:39:24;;;;;;;4.13;2.03;;;11.30;63.10;;;;;;4990590;28;20485;-48
2022/02/02 00:41:50;;;;;;;3.33;1.97;;;11.20;63.40;;;;;;4984916;28;20457;-45
2022/02/02 00:44:18;;;;;;;4.97;2.27;;;11.20;63.40;;;;;;4986557;28;20516;-45
2022/02/02 00:46:44;;;;;;;3.90;1.80;;;11.10;63.20;;;;;;4981885;28;20592;-45
2022/02/02 00:49:11;;;;;;;2.07;1.83;;;11.20;63.10;;;;;;4980248;28;20461;-46
2022/02/02 00:51:44;;;;;;;4.57;1.93;;;11.20;63.00;;;;;;4985259;28;20612;-45
2022/02/02 00:54:16;;;;;;;3.23;1.63;;;11.20;63.40;;;;;;4989384;28;20450;-48
2022/02/02 00:56:41;;;;;;;2.00;1.70;;;11.10;63.00;;;;;;4987284;28;20477;-49
2022/02/02 00:59:08;;;;;;;2.33;1.90;;;11.20;63.60;;;;;;4987957;28;20596;-45
2022/02/02 01:01:34;;;;;;;3.43;1.67;;;11.10;64.10;;;;;;4982183;28;20642;-45
2022/02/02 01:03:59;;;;;;;2.17;1.67;;;11.00;64.50;;;;;;4990802;28;20441;-44
2022/02/02 01:06:28;;;;;;;2.30;2.10;;;10.90;65.00;;;;;;4985010;28;20851;-46
2022/02/02 01:09:19;;;;;;;1.73;1.63;;;11.10;65.30;;;;;;4986093;28;20229;-45
2022/02/02 01:12:05;;;;;;;3.80;2.13;;;11.10;64.70;;;;;;4989516;28;20564;-45
2022/02/02 01:19:58;;;;;;;2.20;2.00;;;11.00;64.80;;;;;;4991110;28;20859;-46
2022/02/02 01:27:47;;;;;;;3.83;2.37;;;11.20;64.80;;;;;;4989958;28;20199;-45
2022/02/02 01:27:55;;;;;;;2.40;2.00;;;11.20;64.00;;;;;;4989013;28;22095;-45
2022/02/02 01:30:23;;;;;;;3.97;1.97;;;11.30;64.20;;;;;;4990969;28;20446;-46
2022/02/02 01:32:50;;;;;;;3.17;2.13;;;11.40;64.40;;;;;;4992405;28;20205;-44
2022/02/02 01:35:17;;;;;;;4.00;2.50;;;11.40;64.20;;;;;;4991713;28;20468;-45
2022/02/02 01:37:46;;;;;;;3.83;1.90;;;11.60;64.00;;;;;;4988061;28;20520;-48
2022/02/02 01:40:32;;;;;;;3.93;2.13;;;11.70;63.70;;;;;;4991961;28;20442;-46
2022/02/02 01:43:04;;;;;;;3.33;2.40;;;11.80;63.50;;;;;;4983037;28;20855;-47
2022/02/02 01:45:37;;;;;;;3.60;2.50;;;12.00;62.80;;;;;;4986788;28;20445;-49
2022/02/02 01:48:20;;;;;;;2.13;1.93;;;12.10;62.40;;;;;;4986076;28;20533;-53
2022/02/02 01:53:42;;;;;;;5.83;2.43;;;12.00;63.10;;;;;;4994115;28;20496;-50
2022/02/02 01:56:14;;;;;;;5.80;1.70;;;11.70;61.80;;;;;;4983926;28;20480;-47
2022/02/02 02:01:24;;;;;;;7.13;2.40;;;11.20;63.40;;;;;;4992893;28;20820;-46
2022/02/02 02:03:49;;;;;;;4.73;1.70;;;11.30;63.60;;;;;;4986644;28;20433;-46
2022/02/02 02:06:17;;;;;;;4.67;2.13;;;11.30;63.30;;;;;;4989242;28;20285;-49
2022/02/02 02:08:43;;;;;;;5.37;2.03;;;11.30;64.00;;;;;;4987798;28;20213;-48
2022/02/02 02:11:15;;;;;;;8.40;2.40;;;11.20;64.00;;;;;;4995603;28;20461;-46
2022/02/02 02:16:10;;;;;;;6.47;1.97;;;11.20;64.80;;;;;;4990389;28;20441;-49
2022/02/02 02:18:36;;;;;;;6.97;2.60;;;11.30;64.40;;;;;;4988456;28;20504;-49
2022/02/02 02:21:09;;;;;;;5.80;2.10;;;11.30;64.60;;;;;;5002137;28;20450;-49
2022/02/02 02:23:34;;;;;;;6.23;1.80;;;11.20;64.90;;;;;;4990022;28;20651;-47
2022/02/02 02:26:00;;;;;;;5.30;1.43;;;11.10;65.60;;;;;;4991193;28;20539;-49
2022/02/02 02:31:10;;;;;;;3.13;1.70;;;11.10;66.20;;;;;;4989869;28;20190;-46
2022/02/02 03:50:19;;;;;;;17.33;3.67;;;10.40;71.30;;;;;;4932222;29;20550;-45
2022/02/02 04:05:45;;;;;;;7.13;3.00;;;10.70;69.00;;;;;;4983323;28;20481;-48
2022/02/02 04:10:46;;;;;;;6.90;2.97;;;10.60;68.30;;;;;;4987641;28;20527;-46
2022/02/02 04:13:23;;;;;;;8.50;2.80;;;10.60;68.10;;;;;;4988525;28;20453;-45
2022/02/02 05:03:31;;;;;;;8.33;3.20;;;10.30;68.50;;;;;;4956251;28;20434;-47
2022/02/02 05:52:58;;;;;;;14.53;2.83;;;10.40;65.30;;;;;;4985980;28;20451;-44
2022/02/02 05:55:23;;;;;;;7.30;2.73;;;10.60;64.90;;;;;;4985936;28;20441;-45
2022/02/02 05:57:49;;;;;;;6.60;3.07;;;10.20;64.50;;;;;;4988839;28;20919;-44
2022/02/02 06:00:16;;;;;;;8.20;2.90;;;10.10;65.00;;;;;;4987478;28;20202;-45
2022/02/02 06:02:46;;;;;;;5.67;2.70;;;10.30;65.50;;;;;;4987826;28;20453;-44
2022/02/02 06:05:12;;;;;;;10.60;2.67;;;10.40;64.60;;;;;;4991858;28;20442;-44
2022/02/02 06:07:40;;;;;;;11.13;3.93;;;10.50;64.30;;;;;;4985692;28;20449;-44
2022/02/02 06:10:09;;;;;;;5.43;2.93;;;10.50;64.30;;;;;;4991765;28;20202;-48
2022/02/02 06:12:34;;;;;;;5.77;2.70;;;10.70;64.00;;;;;;4990300;28;20484;-47
2022/02/02 06:15:08;;;;;;;5.90;2.83;;;10.70;63.90;;;;;;4989037;28;20456;-48
2022/02/02 06:17:39;;;;;;;9.37;3.23;;;10.80;63.60;;;;;;4991354;28;20226;-44
2022/02/02 06:20:05;;;;;;;10.67;3.13;;;10.90;63.30;;;;;;4985148;28;20493;-44
2022/02/02 06:22:32;;;;;;;10.17;3.37;;;10.90;63.50;;;;;;4989494;28;20445;-44
2022/02/02 06:25:32;;;;;;;9.50;3.23;;;10.90;63.50;;;;;;4985780;28;20445;-45
2022/02/02 06:28:05;;;;;;;10.87;3.20;;;10.90;63.60;;;;;;4987160;28;20462;-45
2022/02/02 06:30:33;;;;;;;9.40;2.80;;;10.90;63.40;;;;;;4992125;28;20477;-45
2022/02/02 06:33:07;;;;;;;8.53;2.63;;;10.90;63.50;;;;;;4986581;28;20441;-45
2022/02/02 06:35:34;;;;;;;11.87;2.60;;;11.00;63.40;;;;;;4991202;28;20941;-47
2022/02/02 06:37:59;;;;;;;8.70;3.00;;;11.10;63.20;;;;;;4986559;28;20460;-49
2022/02/02 06:40:26;;;;;;;10.57;2.70;;;11.00;62.90;;;;;;4987060;28;20441;-45
2022/02/02 06:42:51;;;;;;;10.73;2.73;;;10.80;63.50;;;;;;4986972;28;20199;-48
2022/02/02 06:45:18;;;;;;;4.93;2.57;;;10.80;63.20;;;;;;4998927;28;20492;-45
2022/02/02 06:47:47;;;;;;;6.50;3.17;;;10.80;63.20;;;;;;4990565;28;20233;-47
2022/02/02 06:50:29;;;;;;;9.17;3.07;;;10.90;63.00;;;;;;4993111;28;20551;-47
2022/02/02 06:56:06;;;;;;;17.27;3.47;;;11.00;62.80;;;;;;4993579;28;20508;-45
2022/02/02 06:58:52;;;;;;;10.93;3.27;;;11.10;62.50;;;;;;4988634;28;20477;-48
2022/02/02 07:04:22;;;;;;;13.30;3.70;;;10.80;62.40;;;;;;4992954;28;20460;-45
2022/02/02 07:12:23;;;;;;;7.57;3.20;;;10.70;63.30;;;;;;4981348;28;20473;-45
2022/02/02 07:15:12;;;;;;;11.00;3.73;;;10.60;63.70;;;;;;4985311;28;20438;-45
2022/02/02 07:30:18;;;;;;;14.50;3.50;;;10.60;63.80;;;;;;4993677;28;20507;-47
2022/02/02 07:32:52;;;;;;;10.63;3.03;;;10.60;64.00;;;;;;4990077;28;20442;-45
2022/02/02 07:35:33;;;;;;;10.53;3.60;;;10.80;63.90;;;;;;4992906;28;20441;-47
2022/02/02 07:38:10;;;;;;;14.43;3.57;;;10.80;63.70;;;;;;4990395;28;20957;-47
2022/02/02 07:40:39;;;;;;;7.50;2.93;;;10.70;63.70;;;;;;4991368;28;20430;-44
2022/02/02 07:43:05;;;;;;;11.73;3.50;;;10.90;63.80;;;;;;4992135;28;20433;-45
2022/02/02 07:45:32;;;;;;;10.97;4.80;;;10.90;63.40;;;;;;4991412;28;20450;-43
2022/02/02 07:48:02;;;;;;;8.47;3.73;;;10.80;63.30;;;;;;4995856;28;20441;-47
2022/02/02 07:50:33;;;;;;;13.83;3.77;;;11.10;63.40;;;;;;4986445;28;20434;-44
2022/02/02 07:53:04;;;;;;;7.80;2.97;;;11.00;63.30;;;;;;4984958;28;20474;-44
2022/02/02 07:55:31;;;;;;;17.37;3.60;;;11.10;63.10;;;;;;4990521;28;21249;-44
2022/02/02 07:57:58;;;;;;;8.10;3.07;;;11.20;62.70;;;;;;4986369;28;20533;-45
2022/02/02 08:00:25;;;;;;;9.07;3.90;;;11.00;62.30;;;;;;4987842;28;20434;-47
2022/02/02 08:05:18;;;;;;;9.67;3.20;;;10.80;63.50;;;;;;4982805;28;20940;-44
2022/02/02 08:07:53;;;;;;;9.27;3.00;;;10.90;64.10;;;;;;4987210;28;20287;-47
2022/02/02 08:10:21;;;;;;;12.93;3.37;;;10.90;64.60;;;;;;4987273;28;20456;-46
2022/02/02 08:12:55;;;;;;;9.63;3.03;;;11.10;64.60;;;;;;4990604;28;20473;-44
2022/02/02 08:15:22;;;;;;;9.43;3.03;;;11.00;64.50;;;;;;4985014;28;20437;-44
2022/02/02 08:17:50;;;;;;;6.83;3.37;;;11.00;64.30;;;;;;4980412;28;20790;-47
2022/02/02 08:20:17;;;;;;;10.90;3.47;;;11.10;64.30;;;;;;4981138;28;20490;-46
2022/02/02 08:22:44;;;;;;;5.90;2.87;;;11.00;63.90;;;;;;4985798;28;20442;-45
2022/02/02 08:25:12;;;;;;;10.20;3.00;;;11.20;63.70;;;;;;4983171;28;20444;-44
2022/02/02 08:27:40;;;;;;;8.57;3.17;;;11.30;63.50;;;;;;4982971;28;20507;-48
2022/02/02 08:30:11;;;;;;;10.03;3.90;;;11.40;63.30;;;;;;4987613;28;20528;-46
2022/02/02 08:32:43;;;;;;;8.30;3.60;;;11.60;63.00;;;;;;4980368;28;20443;-45
2022/02/02 08:35:09;;;;;;;8.30;3.10;;;11.70;63.60;;;;;;4985983;28;22019;-45
2022/02/02 08:37:39;;;;;;;13.80;3.77;;;11.40;63.70;;;;;;4979815;28;20427;-44
2022/02/02 08:40:23;;;;;;;9.43;3.60;;;11.50;63.60;;;;;;4986659;28;20978;-46
2022/02/02 08:42:48;;;;;;;10.37;3.87;;;11.70;62.30;;;;;;4983962;28;20462;-45
2022/02/02 08:47:45;;;;;;;10.00;3.67;;;11.40;62.70;;;;;;4981713;28;20240;-45
2022/02/02 08:50:11;;;;;;;16.30;3.37;;;11.10;62.90;;;;;;4990891;28;20230;-46
2022/02/02 08:52:49;;;;;;;17.93;5.73;;;11.20;63.80;;;;;;4987160;28;20473;-45
2022/02/02 08:55:17;;;;;;;10.90;3.40;;;11.20;63.50;;;;;;4989434;28;20712;-44
2022/02/02 08:57:47;;;;;;;11.60;4.33;;;11.30;63.10;;;;;;4987542;28;20445;-43
2022/02/02 09:00:21;;;;;;;4.50;2.27;;;11.30;62.80;;;;;;4982928;28;20884;-45
2022/02/02 09:05:17;;;;;;;10.60;3.80;;;11.30;63.10;;;;;;4998305;28;20438;-44
2022/02/02 09:05:32;;;;;;;12.47;3.00;;;11.20;63.20;;;;;;4987004;28;20553;-46
2022/02/02 09:07:59;;;;;;;10.80;3.50;;;11.10;63.50;;;;;;4987704;28;20536;-44
2022/02/02 09:22:31;;;;;;;10.73;3.43;;;11.30;62.90;;;;;;4994825;28;20495;-43
2022/02/02 09:34:51;;;;;;;10.70;3.30;;;11.70;61.90;;;;;;4991110;28;20438;-46
2022/02/02 09:37:17;;;;;;;16.50;3.90;;;11.70;61.50;;;;;;4979050;28;20833;-45
2022/02/02 09:39:49;;;;;;;16.10;4.13;;;11.50;60.40;;;;;;4983358;28;20500;-45
2022/02/02 09:42:19;;;;;;;7.67;3.20;;;11.60;60.70;;;;;;4986258;28;20476;-45
2022/02/02 09:44:45;;;;;;;14.27;3.87;;;11.50;60.30;;;;;;4990016;28;20446;-46
2022/02/02 09:49:47;;;;;;;7.07;2.80;;;11.30;61.40;;;;;;4991620;28;20529;-45
2022/02/02 09:52:16;;;;;;;11.00;3.47;;;11.40;61.50;;;;;;4993126;28;20668;-44
2022/02/02 09:55:08;;;;;;;14.97;6.30;;;11.50;61.80;;;;;;4988322;28;20493;-45
2022/02/02 10:03:08;;;;;;;9.97;3.77;;;11.60;60.10;;;;;;4992172;28;20449;-45
2022/02/02 10:05:46;;;;;;;10.30;3.23;;;11.80;60.00;;;;;;4992524;28;20469;-44
2022/02/02 10:11:09;;;;;;;8.33;3.00;;;12.10;58.90;;;;;;5005572;28;20523;-47
2022/02/02 10:14:13;;;;;;;9.77;3.10;;;12.10;58.50;;;;;;4991103;28;20446;-48
2022/02/02 10:16:44;;;;;;;12.43;3.47;;;12.10;58.20;;;;;;4983910;28;20492;-45
2022/02/02 10:19:18;;;;;;;11.50;3.70;;;12.10;58.00;;;;;;4987909;28;20984;-45
2022/02/02 10:21:45;;;;;;;8.47;2.93;;;11.90;57.60;;;;;;4985336;28;22146;-45
2022/02/02 10:24:11;;;;;;;11.33;3.40;;;12.00;57.90;;;;;;4992648;28;20446;-47
2022/02/02 10:26:45;;;;;;;9.07;3.73;;;12.00;57.60;;;;;;4990387;28;20442;-45
2022/02/02 10:29:14;;;;;;;12.07;3.70;;;12.10;57.70;;;;;;4994218;28;20442;-49
2022/02/02 10:31:43;;;;;;;10.93;3.20;;;12.10;58.00;;;;;;4991021;28;20801;-49
2022/02/02 10:34:20;;;;;;;10.13;3.27;;;12.30;57.40;;;;;;4993857;28;20497;-45
2022/02/02 10:37:19;;;;;;;12.50;4.07;;;12.10;56.90;;;;;;4990910;28;20445;-46
2022/02/02 10:39:47;;;;;;;14.60;3.07;;;12.00;57.30;;;;;;4982460;28;20494;-47
2022/02/02 10:42:13;;;;;;;13.70;3.10;;;12.10;56.90;;;;;;4990041;28;20481;-46
2022/02/02 10:44:45;;;;;;;10.30;3.70;;;12.00;56.90;;;;;;4992702;28;20513;-45
2022/02/02 10:47:35;;;;;;;16.33;3.60;;;11.90;56.70;;;;;;4988716;28;20187;-45
2022/02/02 10:50:31;;;;;;;10.17;3.10;;;12.00;57.00;;;;;;4990544;28;20468;-48
2022/02/02 10:54:03;;;;;;;13.10;3.13;;;12.00;57.70;;;;;;4987708;28;20882;-45
2022/02/02 10:56:32;;;;;;;9.97;4.00;;;12.10;57.60;;;;;;4981431;28;20545;-45
2022/02/02 11:07:09;;;;;;;10.97;3.93;;;12.40;58.80;;;;;;4989084;28;20456;-45
2022/02/02 11:09:35;;;;;;;9.17;3.33;;;12.40;58.90;;;;;;4990316;28;20442;-45
2022/02/02 11:12:02;;;;;;;10.57;3.43;;;12.50;58.10;;;;;;4986108;28;20485;-45
2022/02/02 11:14:42;;;;;;;7.50;3.43;;;12.30;57.30;;;;;;4991393;28;20809;-45
2022/02/02 11:17:19;;;;;;;9.70;4.60;;;12.30;57.40;;;;;;4986401;28;20437;-44
2022/02/02 11:19:49;;;;;;;9.40;3.63;;;12.30;56.70;;;;;;4986518;28;21093;-44
2022/02/02 11:22:44;;;;;;;10.63;3.13;;;11.80;56.20;;;;;;4985653;28;20445;-45
2022/02/02 11:25:10;;;;;;;13.30;3.87;;;12.00;57.50;;;;;;4992568;28;20453;-46
2022/02/02 11:27:41;;;;;;;18.17;3.97;;;12.10;57.80;;;;;;4990052;28;20481;-46
2022/02/02 11:30:30;;;;;;;9.03;3.30;;;12.30;57.80;;;;;;4986131;28;20298;-44
2022/02/02 11:33:19;;;;;;;9.10;2.87;;;12.30;56.60;;;;;;4976410;28;20444;-45
2022/02/02 11:35:49;;;;;;;10.60;3.77;;;12.30;56.80;;;;;;4990080;28;20445;-46
2022/02/02 11:38:33;;;;;;;9.97;3.03;;;12.50;57.20;;;;;;4986575;28;20524;-45
2022/02/02 11:41:12;;;;;;;10.37;3.47;;;12.30;55.70;;;;;;4996395;28;20820;-46
2022/02/02 11:43:53;;;;;;;6.53;2.57;;;12.40;55.60;;;;;;4990252;28;20441;-47
2022/02/02 11:46:37;;;;;;;11.53;3.43;;;12.40;55.60;;;;;;4990526;28;20511;-46
2022/02/02 11:49:08;;;;;;;12.87;3.50;;;12.30;55.50;;;;;;4990291;28;20536;-47
2022/02/02 11:51:42;;;;;;;9.50;3.03;;;12.20;55.70;;;;;;4991011;28;20992;-49
2022/02/02 11:54:15;;;;;;;7.93;3.10;;;12.00;56.20;;;;;;4990682;28;20452;-45
2022/02/02 11:57:04;;;;;;;12.23;3.60;;;12.00;56.80;;;;;;4991064;28;20660;-45
2022/02/02 12:00:06;;;;;;;10.57;2.53;;;12.10;56.80;;;;;;4991099;28;20489;-46
2022/02/02 12:07:52;;;;;;;10.10;4.17;;;12.50;56.00;;;;;;4990754;28;20437;-47
2022/02/02 12:11:03;;;;;;;10.20;3.63;;;12.50;55.40;;;;;;4998942;28;20444;-45
2022/02/02 12:49:41;;;;;;;6.03;2.70;;;12.90;54.40;;;;;;4979627;28;20807;-45
2022/02/02 13:00:11;;;;;;;7.23;3.03;;;12.90;53.30;;;;;;4996326;28;20488;-44
2022/02/02 13:02:38;;;;;;;7.53;2.70;;;12.90;53.90;;;;;;4990949;28;20442;-44
2022/02/02 13:05:06;;;;;;;10.60;3.47;;;13.00;53.70;;;;;;4991294;28;20455;-46
2022/02/02 13:07:32;;;;;;;9.63;3.40;;;13.00;53.30;;;;;;4985626;28;20442;-45
2022/02/02 13:10:01;;;;;;;8.30;2.73;;;13.10;53.70;;;;;;4986271;28;20952;-45
2022/02/02 13:12:34;;;;;;;9.43;3.03;;;12.90;53.00;;;;;;4985301;28;20795;-45
2022/02/02 13:15:23;;;;;;;8.63;3.03;;;12.90;53.60;;;;;;4989575;28;20452;-45
2022/02/02 13:18:13;;;;;;;6.37;2.73;;;12.90;52.50;;;;;;4990624;28;20456;-44
2022/02/02 13:21:07;;;;;;;9.17;3.13;;;12.80;52.40;;;;;;4993361;28;20449;-44
2022/02/02 13:24:28;;;;;;;11.47;3.20;;;12.80;53.70;;;;;;4989872;28;22590;-44
2022/02/02 13:26:45;;;;;;;5.90;2.60;;;12.80;55.60;;;;;;4985677;28;20907;-45
2022/02/02 13:29:35;;;;;;;9.23;3.10;;;12.40;58.30;;;;;;4999094;28;20444;-44
2022/02/02 13:32:20;;;;;;;11.57;3.53;;;12.20;59.70;;;;;;4989590;28;20456;-45
2022/02/02 13:51:51;;;;;;;7.87;2.97;;;12.50;59.70;;;;;;4992937;28;20434;-45
2022/02/02 13:55:11;;;;;;;7.80;3.47;;;12.50;59.50;;;;;;4992980;28;20519;-44
2022/02/02 13:57:43;;;;;;;7.83;4.13;;;12.70;58.90;;;;;;4986191;28;20457;-45
2022/02/02 14:00:26;;;;;;;15.57;3.83;;;12.80;58.20;;;;;;4981188;28;20981;-45
2022/02/02 14:06:03;;;;;;;13.33;3.33;;;13.10;57.60;;;;;;4976575;28;20445;-46
2022/02/02 14:25:35;;;;;;;12.33;3.13;;;12.70;58.20;;;;;;4993075;28;20505;-46
2022/02/02 14:25:51;;;;;;;10.80;4.27;;;12.70;59.00;;;;;;4988110;28;20872;-44
2022/02/02 14:33:46;;;;;;;8.03;2.97;;;13.40;57.40;;;;;;4908095;29;20464;-44
2022/02/02 14:36:16;;;;;;;5.90;2.90;;;13.40;57.70;;;;;;4910470;29;20445;-45
2022/02/02 14:38:51;;;;;;;10.23;3.03;;;13.30;56.90;;;;;;4951708;28;21070;-44
2022/02/02 14:44:07;;;;;;;11.40;3.93;;;13.40;56.80;;;;;;4986298;28;20433;-45
2022/02/02 14:47:01;;;;;;;11.37;2.73;;;13.50;56.10;;;;;;4983712;28;20464;-44
2022/02/02 14:49:31;;;;;;;7.70;2.63;;;13.50;55.90;;;;;;4991273;28;20438;-46
2022/02/02 14:54:36;;;;;;;6.37;3.00;;;13.80;56.30;;;;;;5001219;28;20441;-45
2022/02/02 15:32:13;;;;;;;8.30;4.10;;;13.90;56.60;;;;;;4976084;28;20442;-44
2022/02/02 15:34:44;;;;;;;11.03;4.00;;;13.50;57.10;;;;;;4990155;28;20429;-45
2022/02/02 15:37:22;;;;;;;5.40;2.67;;;13.30;57.40;;;;;;4987942;28;20204;-46
2022/02/02 15:58:22;;;;;;;3.93;3.53;;;13.20;58.00;;;;;;4990425;28;20909;-45
2022/02/02 16:03:16;;;;;;;13.47;6.03;;;13.20;58.20;;;;;;4987393;28;20441;-46
2022/02/02 16:08:10;;;;;;;5.13;2.77;;;13.40;57.80;;;;;;4988266;28;20434;-44
2022/02/02 16:10:45;;;;;;;6.13;2.93;;;13.50;57.70;;;;;;4992148;28;20197;-44
2022/02/02 16:13:26;;;;;;;3.50;2.23;;;13.50;57.60;;;;;;4990124;28;20445;-44
2022/02/02 16:15:57;;;;;;;7.30;2.37;;;13.50;57.40;;;;;;4988416;28;20463;-45
2022/02/02 16:37:05;;;;;;;5.40;2.60;;;13.30;57.50;;;;;;4989306;28;20448;-44
2022/02/02 16:39:34;;;;;;;5.80;2.93;;;13.20;58.00;;;;;;4992400;28;20222;-44
2022/02/02 16:44:44;;;;;;;5.23;2.80;;;13.20;58.10;;;;;;4981765;28;20436;-45
2022/02/02 16:47:10;;;;;;;5.17;2.57;;;13.20;58.00;;;;;;4981450;28;20444;-44
2022/02/02 16:49:35;;;;;;;6.23;2.83;;;13.20;58.20;;;;;;4989903;28;20191;-44
2022/02/02 16:52:01;;;;;;;4.30;2.93;;;13.20;58.20;;;;;;4989241;28;20230;-44
2022/02/02 16:54:32;;;;;;;8.37;4.37;;;13.10;58.20;;;;;;4989234;28;20191;-45
2022/02/02 16:57:16;;;;;;;5.47;4.23;;;13.20;58.20;;;;;;4992385;28;20607;-44
2022/02/02 17:34:48;;;;;;;4.83;4.10;;;12.50;60.10;;;;;;4987970;28;20434;-45
2022/02/02 17:42:51;;;;;;;7.20;3.13;;;12.40;60.70;;;;;;4989689;28;20844;-45
2022/02/02 18:02:18;;;;;;;6.33;4.97;;;12.70;59.70;;;;;;4987627;28;20947;-45
2022/02/02 18:13:47;;;;;;;4.33;2.70;;;12.80;59.20;;;;;;4989097;28;20457;-46
2022/02/02 18:18:40;;;;;;;4.10;2.70;;;12.90;59.20;;;;;;4994878;28;20803;-46
2022/02/02 18:20:43;;;;;;;5.20;3.00;;;12.80;59.20;;;;;;4990038;28;20234;-48
2022/02/02 18:25:58;;;;;;;3.80;3.43;;;12.80;59.30;;;;;;4992734;28;20592;-45
2022/02/02 18:34:17;;;;;;;5.57;4.80;;;12.80;59.50;;;;;;4979704;28;20529;-45
2022/02/02 18:53:19;;;;;;;5.20;3.90;;;12.80;60.20;;;;;;4989967;28;20856;-48
2022/02/02 19:01:10;;;;;;;5.90;3.33;;;12.90;60.10;;;;;;4981974;28;20461;-45
2022/02/02 20:03:15;;;;;;;5.70;3.70;;;12.40;59.20;;;;;;4988783;28;20827;-44
2022/02/02 20:05:42;;;;;;;5.40;4.30;;;12.30;59.30;;;;;;4990724;28;20485;-45
2022/02/02 20:11:02;;;;;;;12.67;8.30;;;12.30;59.20;;;;;;4987627;28;20548;-44
2022/02/02 20:13:28;;;;;;;12.17;8.90;;;12.10;59.70;;;;;;4989636;28;20529;-44
2022/02/02 20:15:54;;;;;;;18.10;9.83;;;12.20;59.80;;;;;;4990357;28;20430;-44
2022/02/02 20:18:21;;;;;;;10.43;8.30;;;12.00;59.10;;;;;;4989148;28;20437;-46
2022/02/02 20:20:46;;;;;;;8.27;7.20;;;11.90;59.30;;;;;;4989022;28;20490;-44
2022/02/02 20:23:13;;;;;;;10.40;6.60;;;11.90;59.30;;;;;;4990193;28;20979;-45
2022/02/02 20:25:45;;;;;;;11.03;7.37;;;11.90;58.90;;;;;;4980506;28;20659;-44
2022/02/02 20:28:11;;;;;;;12.00;9.60;;;12.00;59.00;;;;;;4987975;28;21008;-44
2022/02/02 20:30:38;;;;;;;13.17;10.13;;;12.00;58.80;;;;;;4987175;28;20525;-45
2022/02/02 20:33:04;;;;;;;12.13;9.50;;;11.90;58.70;;;;;;4985889;28;20386;-44
2022/02/02 20:35:30;;;;;;;11.70;9.20;;;11.90;58.70;;;;;;4988246;28;20434;-45
2022/02/02 20:37:56;;;;;;;10.40;7.90;;;12.00;59.30;;;;;;4986911;28;20452;-44
2022/02/02 20:40:24;;;;;;;10.43;8.60;;;12.10;60.10;;;;;;4988280;28;20211;-44
2022/02/02 21:14:38;;;;;;;8.30;7.17;;;13.10;57.50;;;;;;4986020;28;20453;-44
2022/02/02 21:17:06;;;;;;;8.43;7.53;;;13.20;57.50;;;;;;4985967;28;20596;-45
2022/02/02 21:19:43;;;;;;;9.80;8.73;;;13.30;57.20;;;;;;4985453;28;20493;-44
2022/02/02 21:22:09;;;;;;;11.60;9.37;;;13.40;56.90;;;;;;4989292;28;20450;-44
2022/02/02 21:27:30;;;;;;;12.13;8.93;;;13.10;56.50;;;;;;4987577;28;20448;-46
2022/02/02 21:29:56;;;;;;;11.33;8.37;;;12.90;56.90;;;;;;4986486;28;20449;-45
2022/02/02 21:32:23;;;;;;;8.60;6.93;;;12.70;57.10;;;;;;4984619;28;20493;-44
2022/02/02 21:34:51;;;;;;;14.13;9.50;;;12.40;57.90;;;;;;4989779;28;20202;-43
2022/02/02 21:37:18;;;;;;;10.77;8.63;;;12.20;58.80;;;;;;4992120;28;20453;-45
2022/02/02 21:39:53;;;;;;;10.80;8.57;;;11.90;59.40;;;;;;4987173;28;20497;-48
2022/02/02 21:42:19;;;;;;;9.20;8.00;;;11.70;60.00;;;;;;4990253;28;20449;-44
2022/02/02 21:44:45;;;;;;;9.23;8.23;;;11.60;60.50;;;;;;4986544;28;20500;-43
2022/02/02 21:47:11;;;;;;;13.27;8.33;;;11.70;60.50;;;;;;4994133;28;20198;-46
2022/02/02 21:49:38;;;;;;;8.03;7.23;;;11.70;60.90;;;;;;4995501;28;20484;-48
2022/02/02 21:52:08;;;;;;;11.03;8.77;;;11.70;61.00;;;;;;4991291;28;20533;-47
2022/02/02 21:54:35;;;;;;;11.73;8.50;;;11.70;60.70;;;;;;4987321;28;20458;-44
2022/02/02 21:57:02;;;;;;;10.00;8.30;;;11.80;60.20;;;;;;4991535;28;20438;-45
2022/02/02 21:59:28;;;;;;;9.47;7.60;;;11.80;60.20;;;;;;4990656;28;20489;-44
2022/02/02 22:01:54;;;;;;;14.90;8.97;;;11.70;60.60;;;;;;4991472;28;20442;-46
2022/02/02 22:04:20;;;;;;;11.10;8.77;;;11.80;60.50;;;;;;4992177;28;20443;-45
2022/02/02 22:06:45;;;;;;;11.13;8.73;;;11.60;61.00;;;;;;4987672;28;20456;-44
2022/02/02 22:09:11;;;;;;;11.27;7.93;;;11.60;61.10;;;;;;4990542;28;20198;-44
2022/02/02 22:11:37;;;;;;;12.07;8.43;;;11.70;60.90;;;;;;4984622;28;20301;-44
2022/02/02 22:14:07;;;;;;;11.97;8.80;;;11.80;60.90;;;;;;4990549;28;20210;-45
2022/02/02 22:16:35;;;;;;;10.93;9.20;;;11.80;60.60;;;;;;4990861;28;20195;-44
2022/02/02 22:19:01;;;;;;;11.40;8.83;;;11.80;60.70;;;;;;4989173;28;20488;-45
2022/02/02 22:21:26;;;;;;;9.27;8.37;;;11.70;60.80;;;;;;4988206;28;20437;-45
2022/02/02 22:23:52;;;;;;;13.03;8.10;;;11.70;61.00;;;;;;4990183;28;20246;-44
2022/02/02 22:26:20;;;;;;;9.60;8.60;;;11.60;60.80;;;;;;4990348;28;20282;-44
2022/02/02 22:28:45;;;;;;;9.20;8.07;;;11.60;61.30;;;;;;4991406;28;20206;-44
2022/02/02 22:31:11;;;;;;;11.17;9.23;;;11.70;61.40;;;;;;4992115;28;20445;-43
2022/02/02 22:33:37;;;;;;;8.70;7.80;;;11.70;61.10;;;;;;4990487;28;20558;-44
2022/02/02 22:36:03;;;;;;;9.37;8.03;;;11.80;60.80;;;;;;4990261;28;20529;-44
2022/02/02 22:38:29;;;;;;;9.53;7.30;;;11.80;60.60;;;;;;4988877;28;20198;-44
2022/02/02 22:40:57;;;;;;;10.70;7.60;;;11.80;60.60;;;;;;4991065;28;20553;-44
2022/02/02 22:43:22;;;;;;;9.17;7.70;;;11.80;60.80;;;;;;4988757;28;20948;-44
2022/02/02 22:45:50;;;;;;;8.97;7.93;;;11.90;60.90;;;;;;4994157;28;20549;-44
2022/02/02 22:48:20;;;;;;;11.93;9.17;;;11.90;60.60;;;;;;4987202;28;20240;-44
2022/02/02 22:50:46;;;;;;;10.00;8.57;;;11.90;60.40;;;;;;4994724;28;20447;-45
2022/02/02 22:53:12;;;;;;;11.53;7.53;;;11.90;60.70;;;;;;4987549;28;20533;-44
2022/02/02 22:55:38;;;;;;;9.00;8.10;;;11.80;60.70;;;;;;4992086;28;20520;-45
2022/02/02 22:58:04;;;;;;;9.07;7.70;;;11.70;61.30;;;;;;4986980;28;20612;-44
2022/02/02 23:00:33;;;;;;;10.03;7.67;;;11.60;61.40;;;;;;4990053;28;20226;-45
2022/02/02 23:03:01;;;;;;;10.77;7.90;;;11.60;61.80;;;;;;4984511;28;20863;-44
2022/02/02 23:08:04;;;;;;;9.47;8.47;;;11.50;62.20;;;;;;4988096;28;20449;-44
2022/02/02 23:10:30;;;;;;;13.97;10.50;;;11.20;62.50;;;;;;4988336;28;20963;-44
2022/02/02 23:12:56;;;;;;;18.13;13.20;;;11.00;63.80;;;;;;4989365;28;20569;-46
2022/02/02 23:15:30;;;;;;;14.83;10.50;;;11.20;64.00;;;;;;4986893;28;20481;-46
2022/02/02 23:18:04;;;;;;;10.83;9.60;;;11.30;63.30;;;;;;4984270;28;20203;-44
2022/02/02 23:20:32;;;;;;;13.40;9.97;;;11.30;62.90;;;;;;4985976;28;20485;-44
2022/02/02 23:22:58;;;;;;;11.70;9.23;;;11.30;62.90;;;;;;4989132;28;20446;-44
2022/02/02 23:25:24;;;;;;;12.57;8.93;;;11.30;63.00;;;;;;4985971;28;20804;-45
2022/02/02 23:27:50;;;;;;;11.60;8.23;;;11.30;62.90;;;;;;4989253;28;20206;-44
2022/02/02 23:30:20;;;;;;;9.37;7.53;;;11.40;62.90;;;;;;4988178;28;20521;-45
2022/02/02 23:32:46;;;;;;;8.70;7.43;;;11.50;62.80;;;;;;4986273;28;20458;-46
2022/02/02 23:35:12;;;;;;;6.73;6.13;;;11.40;63.40;;;;;;4989510;28;20830;-46
2022/02/02 23:37:38;;;;;;;8.53;7.20;;;11.50;63.50;;;;;;4993444;28;20559;-46
2022/02/02 23:40:07;;;;;;;7.63;6.60;;;11.60;63.50;;;;;;4987567;28;20229;-45
2022/02/02 23:42:36;;;;;;;9.57;7.90;;;11.60;63.40;;;;;;4987070;28;20438;-46
2022/02/02 23:45:03;;;;;;;11.33;9.60;;;11.70;63.40;;;;;;4987185;28;20444;-44
2022/02/02 23:47:31;;;;;;;12.80;8.10;;;11.70;63.40;;;;;;4989234;28;20458;-45
2022/02/02 23:50:02;;;;;;;15.70;8.80;;;11.70;63.50;;;;;;4988795;28;20517;-44
2022/02/02 23:52:38;;;;;;;12.10;9.77;;;11.70;63.80;;;;;;4987721;28;20437;-45
2022/02/02 23:55:07;;;;;;;10.43;8.93;;;11.70;64.20;;;;;;4988540;28;20459;-44
